Time;durP1;ratioP1;P1;durP2;ratioP2;P2;SDS_P1;SDS_P2;PMS_P1;PMS_P2;Temp;Humidity;BMP_temperature;BMP_pressure;BME280_temperature;BME280_humidity;BME280_pressure;Samples;Min_cycle;Max_cycle;Signal;HPM_P1;HPM_P2
2023/06/02 00:02:22;;;;;;;7.93;3.33;;;;;;;;;;5038801;28;20251;-79
2023/06/02 00:04:49;;;;;;;5.45;2.90;;;;;;;;;;5040412;28;20254;-78
2023/06/02 00:07:14;;;;;;;4.90;2.78;;;;;;;;;;5043636;28;20037;-80
2023/06/02 00:09:41;;;;;;;7.43;3.08;;;;;;;;;;5025636;28;20033;-79
2023/06/02 00:12:08;;;;;;;4.70;2.83;;;;;;;;;;5026250;28;20052;-79
2023/06/02 00:14:34;;;;;;;10.00;3.25;;;;;;;;;;5044571;28;20033;-78
2023/06/02 00:17:03;;;;;;;6.10;2.95;;;;;;;;;;5027442;28;20029;-78
2023/06/02 00:19:31;;;;;;;9.23;3.03;;;;;;;;;;5044948;28;20529;-80
2023/06/02 00:21:57;;;;;;;8.77;3.28;;;;;;;;;;5044357;28;20075;-78
2023/06/02 00:24:23;;;;;;;7.40;2.75;;;;;;;;;;5043929;28;20029;-79
2023/06/02 00:26:48;;;;;;;9.88;3.25;;;;;;;;;;5025338;28;20049;-78
2023/06/02 00:29:14;;;;;;;11.25;3.28;;;;;;;;;;5043434;28;20075;-81
2023/06/02 00:31:39;;;;;;;8.13;3.10;;;;;;;;;;5026344;28;20032;-79
2023/06/02 00:34:04;;;;;;;8.80;2.92;;;;;;;;;;5044296;28;20025;-78
2023/06/02 00:36:29;;;;;;;4.63;2.83;;;;;;;;;;5027676;28;20091;-79
2023/06/02 00:38:54;;;;;;;5.03;3.17;;;;;;;;;;5044838;28;20255;-79
2023/06/02 00:41:20;;;;;;;6.60;2.83;;;;;;;;;;5044989;28;20342;-78
2023/06/02 00:43:45;;;;;;;9.85;3.10;;;;;;;;;;5044478;28;20286;-78
2023/06/02 00:46:10;;;;;;;7.70;2.97;;;;;;;;;;5044194;28;20049;-79
2023/06/02 00:48:36;;;;;;;9.30;3.20;;;;;;;;;;5040742;28;20278;-80
2023/06/02 00:51:02;;;;;;;6.65;2.67;;;;;;;;;;5040081;28;20281;-80
2023/06/02 00:53:28;;;;;;;5.45;2.92;;;;;;;;;;5040923;28;20100;-80
2023/06/02 00:55:54;;;;;;;7.53;3.28;;;;;;;;;;5041158;28;20480;-81
2023/06/02 00:58:19;;;;;;;6.07;2.83;;;;;;;;;;5039798;28;20391;-79
2023/06/02 01:00:46;;;;;;;5.32;2.92;;;;;;;;;;5038821;28;20029;-80
2023/06/02 01:03:14;;;;;;;8.80;3.25;;;;;;;;;;5039362;28;20065;-79
2023/06/02 01:05:40;;;;;;;10.38;3.38;;;;;;;;;;5039677;28;20029;-79
2023/06/02 01:08:07;;;;;;;7.93;3.10;;;;;;;;;;5039466;28;20105;-80
2023/06/02 01:10:35;;;;;;;9.63;3.20;;;;;;;;;;5039342;28;20045;-79
2023/06/02 01:13:01;;;;;;;6.80;2.75;;;;;;;;;;5020127;28;20029;-80
2023/06/02 01:15:27;;;;;;;10.80;3.22;;;;;;;;;;5036952;28;20037;-80
2023/06/02 01:17:53;;;;;;;7.55;3.35;;;;;;;;;;5019633;28;20099;-80
2023/06/02 01:20:23;;;;;;;7.82;2.90;;;;;;;;;;5038952;28;20395;-79
2023/06/02 01:22:57;;;;;;;6.95;2.97;;;;;;;;;;5021045;28;20028;-80
2023/06/02 01:25:25;;;;;;;7.97;2.80;;;;;;;;;;5021172;28;20025;-80
2023/06/02 01:27:51;;;;;;;5.53;2.75;;;;;;;;;;5037769;28;20033;-79
2023/06/02 01:30:18;;;;;;;9.30;2.97;;;;;;;;;;5019819;28;20047;-79
2023/06/02 01:32:52;;;;;;;8.27;2.80;;;;;;;;;;5037558;28;20083;-80
2023/06/02 01:35:20;;;;;;;6.07;2.75;;;;;;;;;;5019429;28;20025;-80
2023/06/02 01:37:54;;;;;;;8.25;2.28;;;;;;;;;;5037478;28;20022;-80
2023/06/02 01:40:21;;;;;;;5.07;2.80;;;;;;;;;;5037502;28;20017;-79
2023/06/02 01:42:46;;;;;;;6.88;2.92;;;;;;;;;;5019350;28;20025;-80
2023/06/02 01:45:13;;;;;;;8.55;2.78;;;;;;;;;;5019636;28;20124;-79
2023/06/02 01:47:38;;;;;;;6.45;2.97;;;;;;;;;;5038330;28;20116;-80
2023/06/02 01:50:04;;;;;;;10.03;3.37;;;;;;;;;;5022999;28;20064;-79
2023/06/02 01:52:30;;;;;;;9.90;2.92;;;;;;;;;;5019638;28;20265;-79
2023/06/02 01:54:55;;;;;;;6.93;2.95;;;;;;;;;;5039454;28;20090;-78
2023/06/02 01:57:22;;;;;;;6.18;2.83;;;;;;;;;;5021310;28;20095;-78
2023/06/02 01:59:47;;;;;;;7.35;2.90;;;;;;;;;;5037323;28;20033;-79
2023/06/02 02:02:12;;;;;;;8.20;3.00;;;;;;;;;;5037382;28;20022;-79
2023/06/02 02:04:40;;;;;;;7.67;2.67;;;;;;;;;;5037137;28;20255;-79
2023/06/02 02:07:06;;;;;;;6.50;2.80;;;;;;;;;;5037374;28;20259;-79
2023/06/02 02:09:31;;;;;;;9.38;3.35;;;;;;;;;;5036861;28;20025;-79
2023/06/02 02:11:56;;;;;;;7.57;2.80;;;;;;;;;;5037311;28;20029;-79
2023/06/02 02:14:21;;;;;;;6.07;2.80;;;;;;;;;;5019852;28;20737;-79
2023/06/02 02:16:49;;;;;;;5.57;2.60;;;;;;;;;;5037747;28;20745;-79
2023/06/02 02:19:16;;;;;;;7.03;3.10;;;;;;;;;;5038577;28;20029;-78
2023/06/02 02:21:41;;;;;;;6.57;2.72;;;;;;;;;;5037018;28;20456;-79
2023/06/02 02:24:07;;;;;;;6.45;2.80;;;;;;;;;;5037031;28;20025;-78
2023/06/02 02:26:32;;;;;;;9.13;3.07;;;;;;;;;;5020136;28;20017;-79
2023/06/02 02:28:57;;;;;;;7.70;3.03;;;;;;;;;;5020766;28;20317;-79
2023/06/02 02:31:22;;;;;;;9.18;3.20;;;;;;;;;;5019254;28;20025;-78
2023/06/02 02:33:48;;;;;;;8.03;2.60;;;;;;;;;;5019144;28;20037;-78
2023/06/02 02:36:16;;;;;;;6.45;3.10;;;;;;;;;;5037665;28;20263;-79
2023/06/02 02:38:41;;;;;;;10.60;3.22;;;;;;;;;;5036531;28;20476;-77
2023/06/02 02:41:06;;;;;;;8.60;3.10;;;;;;;;;;5018752;28;20029;-80
2023/06/02 02:43:31;;;;;;;7.60;2.87;;;;;;;;;;5036905;28;20262;-79
2023/06/02 02:45:57;;;;;;;6.83;3.00;;;;;;;;;;5036706;28;20275;-79
2023/06/02 02:48:22;;;;;;;8.00;3.10;;;;;;;;;;5037012;28;20274;-80
2023/06/02 02:50:47;;;;;;;8.77;3.00;;;;;;;;;;5036966;28;20312;-79
2023/06/02 02:53:15;;;;;;;11.17;3.40;;;;;;;;;;5036752;28;20275;-79
2023/06/02 02:55:41;;;;;;;10.23;2.92;;;;;;;;;;5036304;28;20752;-79
2023/06/02 02:58:08;;;;;;;8.37;3.17;;;;;;;;;;5036712;28;20021;-79
2023/06/02 03:00:33;;;;;;;8.40;3.33;;;;;;;;;;5036512;28;20262;-78
2023/06/02 03:03:01;;;;;;;5.63;2.67;;;;;;;;;;5035657;28;20171;-80
2023/06/02 03:05:26;;;;;;;9.10;3.25;;;;;;;;;;5035427;28;20025;-79
2023/06/02 03:07:51;;;;;;;9.40;3.28;;;;;;;;;;5035499;28;20025;-78
2023/06/02 03:10:17;;;;;;;10.55;3.10;;;;;;;;;;5017860;28;20029;-79
2023/06/02 03:12:42;;;;;;;11.35;2.95;;;;;;;;;;5035467;28;20029;-79
2023/06/02 03:15:07;;;;;;;13.63;2.75;;;;;;;;;;5017251;28;20026;-77
2023/06/02 03:17:32;;;;;;;9.65;2.92;;;;;;;;;;5036986;28;20043;-79
2023/06/02 03:19:58;;;;;;;9.18;3.00;;;;;;;;;;5038225;28;20129;-80
2023/06/02 03:22:23;;;;;;;6.78;2.97;;;;;;;;;;5035539;28;20025;-78
2023/06/02 03:24:48;;;;;;;10.70;2.90;;;;;;;;;;5035396;28;20025;-77
2023/06/02 03:27:15;;;;;;;8.43;2.63;;;;;;;;;;5035078;28;20282;-79
2023/06/02 03:29:41;;;;;;;11.18;3.30;;;;;;;;;;5035229;28;20040;-77
2023/06/02 03:32:10;;;;;;;10.38;3.15;;;;;;;;;;5018629;28;20017;-78
2023/06/02 03:34:36;;;;;;;8.52;2.90;;;;;;;;;;5017413;28;20062;-80
2023/06/02 03:37:02;;;;;;;4.82;2.90;;;;;;;;;;5034618;28;20033;-79
2023/06/02 03:39:27;;;;;;;8.98;2.90;;;;;;;;;;5017039;28;20029;-77
2023/06/02 03:41:55;;;;;;;7.38;2.80;;;;;;;;;;5034388;28;20057;-79
2023/06/02 03:44:21;;;;;;;6.50;2.90;;;;;;;;;;5034258;28;20051;-78
2023/06/02 03:46:46;;;;;;;7.77;3.13;;;;;;;;;;5034704;28;20041;-78
2023/06/02 03:49:11;;;;;;;10.13;3.22;;;;;;;;;;5034630;28;20339;-79
2023/06/02 03:51:36;;;;;;;9.15;2.80;;;;;;;;;;5034365;28;20392;-77
2023/06/02 03:54:02;;;;;;;9.50;2.90;;;;;;;;;;5017455;28;20021;-78
2023/06/02 03:56:27;;;;;;;8.23;2.85;;;;;;;;;;5035263;28;20041;-80
2023/06/02 03:58:53;;;;;;;10.43;2.95;;;;;;;;;;5017746;28;20476;-77
2023/06/02 04:01:18;;;;;;;8.77;3.03;;;;;;;;;;5035518;28;20033;-79
2023/06/02 04:03:44;;;;;;;12.77;2.80;;;;;;;;;;5036037;28;20266;-78
2023/06/02 04:06:11;;;;;;;6.80;2.55;;;;;;;;;;5036088;28;20472;-80
2023/06/02 04:08:36;;;;;;;8.55;2.67;;;;;;;;;;5018972;28;20075;-80
2023/06/02 04:11:01;;;;;;;8.95;3.20;;;;;;;;;;5036496;28;20025;-79
2023/06/02 04:13:27;;;;;;;9.65;2.63;;;;;;;;;;5036992;28;20029;-77
2023/06/02 04:15:52;;;;;;;15.77;3.20;;;;;;;;;;5020083;28;20120;-81
2023/06/02 04:18:17;;;;;;;6.93;2.90;;;;;;;;;;5036289;28;20100;-78
2023/06/02 04:20:43;;;;;;;13.23;3.28;;;;;;;;;;5035001;28;20037;-78
2023/06/02 04:23:08;;;;;;;17.25;3.05;;;;;;;;;;5034023;28;20044;-76
2023/06/02 04:25:33;;;;;;;9.53;3.43;;;;;;;;;;5032750;28;20025;-77
2023/06/02 04:27:58;;;;;;;6.15;2.90;;;;;;;;;;5015567;28;20271;-77
2023/06/02 04:30:24;;;;;;;9.07;2.90;;;;;;;;;;5032562;28;20026;-77
2023/06/02 04:32:49;;;;;;;17.33;3.30;;;;;;;;;;5032562;28;20266;-78
2023/06/02 04:35:15;;;;;;;10.80;3.38;;;;;;;;;;5014828;28;20250;-78
2023/06/02 04:37:43;;;;;;;9.43;3.17;;;;;;;;;;5015064;28;20114;-77
2023/06/02 04:40:09;;;;;;;11.90;3.47;;;;;;;;;;5014701;28;20471;-77
2023/06/02 04:42:36;;;;;;;10.93;3.20;;;;;;;;;;5032306;28;20034;-77
2023/06/02 04:45:03;;;;;;;5.50;2.80;;;;;;;;;;5014871;28;20025;-78
2023/06/02 04:47:28;;;;;;;9.18;3.05;;;;;;;;;;5032697;28;20026;-77
2023/06/02 04:49:54;;;;;;;9.75;2.97;;;;;;;;;;5032423;28;20391;-78
2023/06/02 04:52:20;;;;;;;13.40;2.90;;;;;;;;;;5018253;28;20029;-77
2023/06/02 04:54:45;;;;;;;12.43;3.00;;;;;;;;;;5040292;28;20025;-78
2023/06/02 04:57:10;;;;;;;10.70;2.90;;;;;;;;;;5040305;28;20029;-78
2023/06/02 04:59:35;;;;;;;8.60;2.80;;;;;;;;;;5037743;28;20119;-77
2023/06/02 05:02:01;;;;;;;11.10;2.70;;;;;;;;;;5038228;28;20033;-78
2023/06/02 05:04:27;;;;;;;7.57;2.67;;;;;;;;;;5041780;28;20488;-80
2023/06/02 05:06:52;;;;;;;11.30;2.80;;;;;;;;;;5038891;28;20033;-77
2023/06/02 05:09:18;;;;;;;13.23;3.22;;;;;;;;;;5036835;28;20025;-77
2023/06/02 05:11:44;;;;;;;15.02;2.95;;;;;;;;;;5039753;28;20112;-77
2023/06/02 05:14:09;;;;;;;11.40;2.90;;;;;;;;;;5037161;28;20060;-79
2023/06/02 05:16:35;;;;;;;10.48;2.63;;;;;;;;;;5040672;28;20067;-82
2023/06/02 05:19:00;;;;;;;12.88;2.80;;;;;;;;;;5041436;28;20017;-78
2023/06/02 05:21:28;;;;;;;14.43;3.17;;;;;;;;;;5022556;28;20499;-79
2023/06/02 05:23:54;;;;;;;8.77;2.85;;;;;;;;;;5040150;28;20026;-79
2023/06/02 05:26:19;;;;;;;10.55;2.55;;;;;;;;;;5041103;28;20056;-80
2023/06/02 05:28:44;;;;;;;14.98;2.95;;;;;;;;;;5040925;28;20036;-78
2023/06/02 05:31:10;;;;;;;11.60;2.70;;;;;;;;;;5023127;28;20461;-80
2023/06/02 05:33:36;;;;;;;14.40;2.63;;;;;;;;;;5041089;28;20511;-80
2023/06/02 05:36:01;;;;;;;12.75;2.45;;;;;;;;;;5040929;28;20103;-81
2023/06/02 05:38:26;;;;;;;12.67;3.03;;;;;;;;;;5041217;28;20041;-79
2023/06/02 05:40:51;;;;;;;10.97;2.83;;;;;;;;;;5041313;28;20251;-78
2023/06/02 05:43:17;;;;;;;11.57;2.70;;;;;;;;;;5041575;28;20289;-80
2023/06/02 05:45:42;;;;;;;12.55;3.08;;;;;;;;;;5041901;28;20258;-80
2023/06/02 05:48:07;;;;;;;11.35;2.88;;;;;;;;;;5042631;28;20056;-79
2023/06/02 05:50:32;;;;;;;11.63;2.43;;;;;;;;;;5042460;28;20037;-80
2023/06/02 05:52:57;;;;;;;9.77;3.07;;;;;;;;;;5042168;28;20262;-81
2023/06/02 05:55:23;;;;;;;8.37;1.73;;;;;;;;;;5042708;28;20341;-80
2023/06/02 05:57:48;;;;;;;23.80;3.05;;;;;;;;;;5025162;28;20282;-80
2023/06/02 06:00:14;;;;;;;10.32;2.90;;;;;;;;;;5043760;28;20026;-81
2023/06/02 06:02:39;;;;;;;13.82;2.92;;;;;;;;;;5024634;28;20029;-82
2023/06/02 06:05:05;;;;;;;20.38;2.90;;;;;;;;;;5044183;28;20032;-81
2023/06/02 06:07:30;;;;;;;12.02;3.00;;;;;;;;;;5044166;28;20029;-79
2023/06/02 06:09:55;;;;;;;13.45;3.13;;;;;;;;;;5044067;28;20106;-80
2023/06/02 06:12:21;;;;;;;16.70;2.47;;;;;;;;;;5025458;28;20064;-80
2023/06/02 06:14:46;;;;;;;8.30;2.87;;;;;;;;;;5026828;28;20308;-79
2023/06/02 06:17:11;;;;;;;17.17;3.40;;;;;;;;;;5025467;28;20269;-82
2023/06/02 06:19:36;;;;;;;18.40;3.00;;;;;;;;;;5044315;28;20290;-80
2023/06/02 06:22:02;;;;;;;12.43;3.30;;;;;;;;;;5044102;28;20262;-81
2023/06/02 06:24:27;;;;;;;13.05;3.08;;;;;;;;;;5026307;28;20032;-79
2023/06/02 06:26:52;;;;;;;11.27;2.85;;;;;;;;;;5044497;28;20036;-81
2023/06/02 06:29:17;;;;;;;14.97;2.93;;;;;;;;;;5043451;28;20484;-81
2023/06/02 06:31:43;;;;;;;14.43;3.10;;;;;;;;;;5045115;28;20741;-80
2023/06/02 06:34:09;;;;;;;14.05;3.30;;;;;;;;;;5044989;28;20669;-80
2023/06/02 06:36:35;;;;;;;16.00;3.55;;;;;;;;;;5044450;28;20074;-80
2023/06/02 06:39:00;;;;;;;14.10;3.30;;;;;;;;;;5044708;28;20045;-80
2023/06/02 06:41:27;;;;;;;9.20;2.55;;;;;;;;;;5026679;28;20026;-81
2023/06/02 06:43:52;;;;;;;9.55;3.50;;;;;;;;;;5044432;28;20037;-81
2023/06/02 06:46:17;;;;;;;12.75;3.20;;;;;;;;;;5043874;28;20464;-80
2023/06/02 06:48:43;;;;;;;11.77;3.22;;;;;;;;;;5044827;28;20025;-80
2023/06/02 06:51:08;;;;;;;13.05;3.65;;;;;;;;;;5044760;28;20136;-80
2023/06/02 06:53:33;;;;;;;11.37;3.27;;;;;;;;;;5044275;28;20048;-81
2023/06/02 06:56:02;;;;;;;11.40;3.08;;;;;;;;;;5043459;28;20259;-81
2023/06/02 06:58:27;;;;;;;16.10;3.25;;;;;;;;;;5024983;28;20545;-80
2023/06/02 07:00:53;;;;;;;13.88;3.22;;;;;;;;;;5023146;28;20025;-80
2023/06/02 07:03:19;;;;;;;12.13;3.15;;;;;;;;;;5023519;28;20419;-81
2023/06/02 07:05:46;;;;;;;21.10;3.45;;;;;;;;;;5023069;28;20135;-80
2023/06/02 07:08:11;;;;;;;15.00;3.45;;;;;;;;;;5040809;28;20484;-79
2023/06/02 07:10:36;;;;;;;13.77;3.10;;;;;;;;;;5040932;28;20136;-80
2023/06/02 07:13:02;;;;;;;12.68;2.92;;;;;;;;;;5021755;28;20036;-79
2023/06/02 07:15:27;;;;;;;15.88;3.35;;;;;;;;;;5039447;28;20119;-79
2023/06/02 07:17:52;;;;;;;15.40;3.50;;;;;;;;;;5038818;28;20033;-81
2023/06/02 07:20:17;;;;;;;16.30;4.07;;;;;;;;;;5039550;28;20254;-81
2023/06/02 07:22:42;;;;;;;18.70;3.73;;;;;;;;;;5039651;28;20326;-81
2023/06/02 07:25:08;;;;;;;18.63;4.03;;;;;;;;;;5037460;28;20297;-81
2023/06/02 07:27:34;;;;;;;15.02;3.10;;;;;;;;;;5019700;28;20279;-80
2023/06/02 07:29:59;;;;;;;19.30;3.65;;;;;;;;;;5037091;28;20025;-79
2023/06/02 07:32:24;;;;;;;15.65;3.80;;;;;;;;;;5037201;28;20113;-80
2023/06/02 07:34:50;;;;;;;14.43;3.50;;;;;;;;;;5019081;28;20083;-80
2023/06/02 07:37:15;;;;;;;16.13;3.57;;;;;;;;;;5037681;28;20037;-79
2023/06/02 07:39:40;;;;;;;14.20;3.20;;;;;;;;;;5037137;28;20270;-79
2023/06/02 07:42:06;;;;;;;16.50;3.22;;;;;;;;;;5035267;28;20246;-79
2023/06/02 07:44:31;;;;;;;8.40;2.97;;;;;;;;;;5018623;28;20083;-79
2023/06/02 07:46:57;;;;;;;13.80;3.23;;;;;;;;;;5036625;28;20037;-79
2023/06/02 07:49:22;;;;;;;15.27;3.85;;;;;;;;;;5036820;28;20275;-80
2023/06/02 07:51:47;;;;;;;14.70;3.90;;;;;;;;;;5036560;28;20068;-78
2023/06/02 07:54:13;;;;;;;16.08;3.38;;;;;;;;;;5039142;28;20040;-78
2023/06/02 07:56:38;;;;;;;18.50;3.60;;;;;;;;;;5037811;28;20021;-79
2023/06/02 07:59:03;;;;;;;14.85;3.25;;;;;;;;;;5039468;28;20261;-79
2023/06/02 08:01:28;;;;;;;12.07;3.30;;;;;;;;;;5021077;28;20360;-80
2023/06/02 08:03:53;;;;;;;17.10;3.73;;;;;;;;;;5039290;28;20112;-79
2023/06/02 08:06:19;;;;;;;14.93;3.60;;;;;;;;;;5039694;28;20246;-79
2023/06/02 08:08:45;;;;;;;7.82;2.90;;;;;;;;;;5021403;28;20301;-78
2023/06/02 08:11:13;;;;;;;16.98;3.15;;;;;;;;;;5018210;28;20458;-80
2023/06/02 08:13:38;;;;;;;13.82;3.30;;;;;;;;;;5018503;28;20030;-78
2023/06/02 08:16:04;;;;;;;14.95;3.17;;;;;;;;;;5018489;28;20025;-78
2023/06/02 08:18:30;;;;;;;16.85;3.00;;;;;;;;;;5037238;28;20022;-78
2023/06/02 08:20:55;;;;;;;21.58;4.10;;;;;;;;;;5037068;28;20070;-79
2023/06/02 08:23:20;;;;;;;7.68;2.60;;;;;;;;;;5038321;28;20128;-79
2023/06/02 08:25:46;;;;;;;16.30;3.45;;;;;;;;;;5036923;28;20029;-78
2023/06/02 08:28:13;;;;;;;13.88;3.67;;;;;;;;;;5039588;28;20095;-78
2023/06/02 08:30:41;;;;;;;13.10;3.38;;;;;;;;;;5023673;28;20017;-78
2023/06/02 08:33:10;;;;;;;16.80;3.47;;;;;;;;;;5019916;28;20021;-79
2023/06/02 08:35:38;;;;;;;13.50;3.38;;;;;;;;;;5037873;28;20057;-77
2023/06/02 08:38:06;;;;;;;16.35;3.00;;;;;;;;;;5039130;28;20514;-79
2023/06/02 08:40:37;;;;;;;12.93;3.20;;;;;;;;;;5040087;28;20128;-78
2023/06/02 08:43:04;;;;;;;13.88;3.20;;;;;;;;;;5021207;28;20074;-78
2023/06/02 08:45:29;;;;;;;21.17;3.50;;;;;;;;;;5043138;28;20049;-79
2023/06/02 08:47:57;;;;;;;13.38;3.35;;;;;;;;;;5022508;28;20480;-81
2023/06/02 08:50:32;;;;;;;24.58;4.15;;;;;;;;;;5019873;28;20018;-79
2023/06/02 08:53:04;;;;;;;15.40;3.47;;;;;;;;;;5040839;28;20112;-79
2023/06/02 08:55:30;;;;;;;12.10;3.42;;;;;;;;;;5045314;28;20100;-77
2023/06/02 08:57:55;;;;;;;13.63;3.08;;;;;;;;;;5044259;28;20522;-78
2023/06/02 09:00:20;;;;;;;12.40;3.63;;;;;;;;;;5044904;28;20561;-79
2023/06/02 09:02:49;;;;;;;10.55;3.05;;;;;;;;;;5045358;28;20033;-79
2023/06/02 09:05:16;;;;;;;10.73;3.03;;;;;;;;;;5044747;28;20037;-76
2023/06/02 09:07:44;;;;;;;9.95;3.28;;;;;;;;;;5026344;28;20025;-79
2023/06/02 09:10:09;;;;;;;10.73;3.45;;;;;;;;;;5044223;28;20045;-79
2023/06/02 09:12:48;;;;;;;14.20;3.00;;;;;;;;;;5044068;28;20025;-79
2023/06/02 09:15:13;;;;;;;12.82;2.90;;;;;;;;;;5041587;28;20029;-78
2023/06/02 09:17:39;;;;;;;15.65;3.47;;;;;;;;;;5023941;28;20026;-79
2023/06/02 09:20:10;;;;;;;18.00;3.22;;;;;;;;;;5022503;28;20458;-79
2023/06/02 09:22:36;;;;;;;13.95;2.72;;;;;;;;;;5023753;28;20021;-81
2023/06/02 09:25:01;;;;;;;10.18;3.10;;;;;;;;;;5023805;28;20044;-78
2023/06/02 09:27:27;;;;;;;11.38;2.88;;;;;;;;;;5041202;28;20067;-79
2023/06/02 09:30:02;;;;;;;12.80;2.83;;;;;;;;;;5041016;28;20045;-79
2023/06/02 09:32:28;;;;;;;14.60;3.00;;;;;;;;;;5041459;28;20037;-79
2023/06/02 09:34:53;;;;;;;7.03;2.70;;;;;;;;;;5041661;28;20025;-79
2023/06/02 09:37:20;;;;;;;17.80;2.77;;;;;;;;;;5023469;28;20104;-79
2023/06/02 09:39:48;;;;;;;14.52;2.80;;;;;;;;;;5022771;28;20301;-79
2023/06/02 09:42:15;;;;;;;11.82;2.63;;;;;;;;;;5040413;28;20029;-79
2023/06/02 09:45:00;;;;;;;13.02;2.72;;;;;;;;;;5040809;28;20468;-78
2023/06/02 09:47:26;;;;;;;9.85;2.78;;;;;;;;;;5040661;28;20025;-77
2023/06/02 09:49:51;;;;;;;15.37;2.70;;;;;;;;;;5040595;28;20025;-79
2023/06/02 09:52:17;;;;;;;19.40;2.72;;;;;;;;;;5040560;28;20258;-79
2023/06/02 09:54:47;;;;;;;10.23;2.47;;;;;;;;;;5041916;28;20033;-78
2023/06/02 09:57:15;;;;;;;11.88;3.22;;;;;;;;;;5041124;28;20052;-78
2023/06/02 09:59:40;;;;;;;15.48;3.00;;;;;;;;;;5041203;28;20021;-79
2023/06/02 10:02:08;;;;;;;8.80;2.70;;;;;;;;;;5039430;28;20033;-77
2023/06/02 10:04:33;;;;;;;10.93;2.42;;;;;;;;;;5023174;28;20124;-79
2023/06/02 10:07:21;;;;;;;8.68;2.28;;;;;;;;;;5041730;28;20069;-77
2023/06/02 10:10:09;;;;;;;12.30;2.50;;;;;;;;;;5041205;28;20029;-78
2023/06/02 10:12:49;;;;;;;9.73;2.53;;;;;;;;;;5023982;28;20464;-78
2023/06/02 10:15:36;;;;;;;14.77;2.67;;;;;;;;;;5023769;28;20026;-78
2023/06/02 10:18:22;;;;;;;11.85;2.40;;;;;;;;;;5039916;28;20439;-78
2023/06/02 10:21:15;;;;;;;14.98;2.42;;;;;;;;;;5039891;28;20049;-78
2023/06/02 10:24:03;;;;;;;11.43;2.50;;;;;;;;;;5042486;28;20087;-78
2023/06/02 10:26:56;;;;;;;11.68;2.22;;;;;;;;;;5041280;28;20036;-80
2023/06/02 10:29:24;;;;;;;15.55;2.63;;;;;;;;;;5040433;28;20032;-79
2023/06/02 10:31:49;;;;;;;11.75;2.10;;;;;;;;;;5042073;28;20036;-79
2023/06/02 10:34:34;;;;;;;9.10;2.17;;;;;;;;;;5024636;28;20025;-79
2023/06/02 10:36:59;;;;;;;14.85;2.55;;;;;;;;;;5042503;28;20047;-79
2023/06/02 10:39:42;;;;;;;8.97;2.33;;;;;;;;;;5044265;28;20101;-80
2023/06/02 10:42:12;;;;;;;4.82;1.52;;;;;;;;;;5025092;28;20029;-80
2023/06/02 10:44:38;;;;;;;7.03;1.90;;;;;;;;;;5041866;28;20044;-80
2023/06/02 10:47:18;;;;;;;5.30;1.70;;;;;;;;;;5042332;28;20029;-79
2023/06/02 10:49:58;;;;;;;12.50;2.55;;;;;;;;;;5022833;28;20056;-80
2023/06/02 10:52:29;;;;;;;8.52;2.38;;;;;;;;;;5042317;28;20017;-79
2023/06/02 10:55:07;;;;;;;12.93;2.30;;;;;;;;;;5024840;28;20029;-80
2023/06/02 10:57:58;;;;;;;11.68;2.60;;;;;;;;;;5042605;28;20025;-80
2023/06/02 11:00:36;;;;;;;9.45;2.22;;;;;;;;;;5041894;28;20017;-80
2023/06/02 11:03:25;;;;;;;8.50;2.00;;;;;;;;;;5042174;28;20026;-80
2023/06/02 11:05:54;;;;;;;10.65;2.75;;;;;;;;;;5041091;28;20028;-80
2023/06/02 11:08:21;;;;;;;6.95;1.90;;;;;;;;;;5041317;28;20034;-79
2023/06/02 11:10:48;;;;;;;9.80;2.28;;;;;;;;;;5041541;28;20045;-79
2023/06/02 11:13:18;;;;;;;13.90;2.40;;;;;;;;;;5040504;28;20025;-78
2023/06/02 11:15:53;;;;;;;12.95;2.42;;;;;;;;;;5041827;28;20083;-78
2023/06/02 11:18:33;;;;;;;11.68;2.72;;;;;;;;;;5023165;28;20026;-79
2023/06/02 11:21:20;;;;;;;8.07;2.00;;;;;;;;;;5022855;28;20029;-80
2023/06/02 11:23:45;;;;;;;13.10;2.33;;;;;;;;;;5040853;28;20143;-78
2023/06/02 11:26:13;;;;;;;10.10;2.40;;;;;;;;;;5041900;28;20492;-80
2023/06/02 11:28:38;;;;;;;8.00;1.40;;;;;;;;;;5041936;28;20035;-80
2023/06/02 11:31:14;;;;;;;8.00;2.17;;;;;;;;;;5042135;28;20436;-79
2023/06/02 11:33:48;;;;;;;12.63;2.63;;;;;;;;;;5042120;28;20312;-79
2023/06/02 11:36:14;;;;;;;8.43;2.13;;;;;;;;;;5043444;28;20018;-79
2023/06/02 11:38:40;;;;;;;6.45;2.10;;;;;;;;;;5041938;28;20029;-79
2023/06/02 11:41:12;;;;;;;7.15;2.33;;;;;;;;;;5024358;28;20025;-81
2023/06/02 11:43:38;;;;;;;8.93;2.00;;;;;;;;;;5024481;28;20040;-80
2023/06/02 11:46:09;;;;;;;8.57;2.20;;;;;;;;;;5040283;28;20017;-79
2023/06/02 11:48:38;;;;;;;11.55;2.45;;;;;;;;;;5038496;28;20026;-79
2023/06/02 11:51:08;;;;;;;8.23;2.00;;;;;;;;;;5020670;28;20045;-77
2023/06/02 11:53:45;;;;;;;12.55;2.40;;;;;;;;;;5038439;28;20029;-79
2023/06/02 11:56:12;;;;;;;5.97;2.20;;;;;;;;;;5037282;28;20029;-79
2023/06/02 11:58:41;;;;;;;10.20;1.95;;;;;;;;;;5038933;28;20049;-80
2023/06/02 12:01:09;;;;;;;9.50;2.20;;;;;;;;;;5044184;28;20036;-80
2023/06/02 12:03:34;;;;;;;8.73;2.10;;;;;;;;;;5027927;28;20468;-79
2023/06/02 12:06:12;;;;;;;12.00;2.22;;;;;;;;;;5045702;28;20033;-80
2023/06/02 12:08:37;;;;;;;15.57;2.45;;;;;;;;;;5045851;28;20033;-80
2023/06/02 12:11:03;;;;;;;9.10;1.92;;;;;;;;;;5047357;28;20124;-79
2023/06/02 12:13:30;;;;;;;12.48;1.70;;;;;;;;;;5049418;28;20120;-79
2023/06/02 12:16:19;;;;;;;11.27;2.25;;;;;;;;;;5052791;28;20039;-79
2023/06/02 12:18:44;;;;;;;10.88;2.35;;;;;;;;;;5052358;28;20025;-78
2023/06/02 12:21:21;;;;;;;10.48;2.38;;;;;;;;;;5051584;28;20029;-82
2023/06/02 12:23:49;;;;;;;12.75;2.40;;;;;;;;;;5027574;28;20021;-88
2023/06/02 12:26:16;;;;;;;11.23;2.40;;;;;;;;;;5044973;28;20118;-80
2023/06/02 12:28:41;;;;;;;15.98;2.08;;;;;;;;;;5029596;28;20025;-80
2023/06/02 12:31:06;;;;;;;12.60;2.50;;;;;;;;;;5049429;28;20021;-80
2023/06/02 12:33:32;;;;;;;7.78;2.33;;;;;;;;;;5035208;28;20034;-81
2023/06/02 12:36:00;;;;;;;9.40;2.45;;;;;;;;;;5036986;28;20368;-83
2023/06/02 12:38:27;;;;;;;12.48;2.75;;;;;;;;;;5034986;28;20026;-79
2023/06/02 12:40:52;;;;;;;12.57;2.80;;;;;;;;;;5047355;28;20028;-79
2023/06/02 12:43:19;;;;;;;10.40;3.00;;;;;;;;;;5051218;28;20037;-79
2023/06/02 12:45:45;;;;;;;9.25;2.20;;;;;;;;;;5051986;28;20027;-78
2023/06/02 12:48:11;;;;;;;11.38;2.75;;;;;;;;;;5052674;28;20045;-80
2023/06/02 12:50:37;;;;;;;9.55;2.30;;;;;;;;;;5052282;28;20025;-79
2023/06/02 12:53:02;;;;;;;13.82;2.78;;;;;;;;;;5053022;28;20056;-79
2023/06/02 12:55:30;;;;;;;7.03;2.37;;;;;;;;;;5034766;28;20029;-78
2023/06/02 12:57:55;;;;;;;9.23;2.40;;;;;;;;;;5052706;28;20322;-79
2023/06/02 13:00:21;;;;;;;9.77;2.63;;;;;;;;;;5053323;28;20025;-78
2023/06/02 13:02:47;;;;;;;12.00;2.38;;;;;;;;;;5052563;28;20025;-79
2023/06/02 13:05:12;;;;;;;8.07;2.47;;;;;;;;;;5053009;28;20025;-79
2023/06/02 13:07:38;;;;;;;7.18;2.42;;;;;;;;;;5034644;28;20045;-78
2023/06/02 13:10:10;;;;;;;10.48;2.08;;;;;;;;;;5034659;28;20071;-78
2023/06/02 13:12:36;;;;;;;14.63;2.50;;;;;;;;;;5030905;28;20088;-79
2023/06/02 13:15:03;;;;;;;11.25;2.25;;;;;;;;;;5048803;28;20026;-78
2023/06/02 13:17:30;;;;;;;7.90;2.30;;;;;;;;;;5048855;28;20029;-78
2023/06/02 13:19:55;;;;;;;9.40;2.53;;;;;;;;;;5030134;28;20048;-80
2023/06/02 13:22:20;;;;;;;6.47;2.70;;;;;;;;;;5048259;28;20029;-78
2023/06/02 13:24:46;;;;;;;18.05;2.67;;;;;;;;;;5031083;28;20032;-78
2023/06/02 13:27:12;;;;;;;7.88;2.55;;;;;;;;;;5031754;28;20032;-78
2023/06/02 13:29:37;;;;;;;12.73;3.42;;;;;;;;;;5048740;28;20056;-78
2023/06/02 13:32:03;;;;;;;13.75;2.53;;;;;;;;;;5049071;28;20031;-79
2023/06/02 13:34:30;;;;;;;12.93;2.85;;;;;;;;;;5030850;28;20036;-79
2023/06/02 13:36:55;;;;;;;6.80;1.73;;;;;;;;;;5049280;28;20032;-78
2023/06/02 13:39:20;;;;;;;8.87;2.87;;;;;;;;;;5045713;28;20013;-78
2023/06/02 13:41:45;;;;;;;13.30;3.20;;;;;;;;;;5044075;28;20290;-78
2023/06/02 13:44:19;;;;;;;7.40;1.87;;;;;;;;;;5027038;28;20263;-78
2023/06/02 13:46:46;;;;;;;9.25;2.70;;;;;;;;;;5043868;28;20283;-79
2023/06/02 13:49:16;;;;;;;6.78;2.72;;;;;;;;;;5043893;28;20114;-80
2023/06/02 13:51:41;;;;;;;8.05;2.45;;;;;;;;;;5045188;28;20017;-79
2023/06/02 13:54:07;;;;;;;14.25;3.10;;;;;;;;;;5045348;28;20031;-80
2023/06/02 13:56:32;;;;;;;8.52;2.95;;;;;;;;;;5045964;28;20052;-79
2023/06/02 13:58:57;;;;;;;10.50;3.10;;;;;;;;;;5030073;28;20026;-79
2023/06/02 14:01:23;;;;;;;15.97;2.97;;;;;;;;;;5048683;28;20564;-79
2023/06/02 14:03:48;;;;;;;7.60;2.42;;;;;;;;;;5047504;28;20713;-77
2023/06/02 14:06:13;;;;;;;8.65;2.28;;;;;;;;;;5048104;28;20021;-79
2023/06/02 14:08:38;;;;;;;8.40;2.43;;;;;;;;;;5047588;28;20025;-78
2023/06/02 14:11:04;;;;;;;9.17;3.07;;;;;;;;;;5048486;28;20278;-78
2023/06/02 14:13:29;;;;;;;8.18;2.90;;;;;;;;;;5030391;28;20274;-79
2023/06/02 14:15:54;;;;;;;7.17;2.67;;;;;;;;;;5046984;28;20038;-80
2023/06/02 14:18:20;;;;;;;12.02;3.08;;;;;;;;;;5047800;28;20247;-79
2023/06/02 14:20:45;;;;;;;7.82;2.88;;;;;;;;;;5048874;28;20053;-79
2023/06/02 14:23:10;;;;;;;13.32;3.03;;;;;;;;;;5047430;28;20090;-79
2023/06/02 14:25:36;;;;;;;10.37;3.17;;;;;;;;;;5048869;28;20071;-80
2023/06/02 14:28:01;;;;;;;8.93;2.60;;;;;;;;;;5047420;28;20294;-79
2023/06/02 14:30:26;;;;;;;9.18;3.10;;;;;;;;;;5047563;28;20262;-78
2023/06/02 14:32:51;;;;;;;11.25;3.08;;;;;;;;;;5047914;28;20029;-79
2023/06/02 14:35:17;;;;;;;10.83;3.10;;;;;;;;;;5029799;28;20206;-79
2023/06/02 14:37:43;;;;;;;4.28;2.80;;;;;;;;;;5030993;28;20255;-78